Time;durP1;ratioP1;P1;durP2;ratioP2;P2;SDS_P1;SDS_P2;PMS_P1;PMS_P2;Temp;Humidity;BMP_temperature;BMP_pressure;BME280_temperature;BME280_humidity;BME280_pressure;Samples;Min_cycle;Max_cycle;Signal;HPM_P1;HPM_P2
2023/10/25 00:01:21;;;;;;;7.88;3.08;;;14.30;99.90;;;;;;4995338;28;20030;-68
2023/10/25 00:03:46;;;;;;;4.20;2.30;;;14.30;99.90;;;;;;4995220;28;20034;-68
2023/10/25 00:06:12;;;;;;;7.90;2.67;;;14.30;99.90;;;;;;4995175;28;20472;-68
2023/10/25 00:08:37;;;;;;;10.45;2.72;;;14.30;99.90;;;;;;4994461;28;20105;-68
2023/10/25 00:11:04;;;;;;;5.90;2.47;;;14.30;99.90;;;;;;4994996;28;20498;-67
2023/10/25 00:13:30;;;;;;;6.82;2.33;;;14.30;99.90;;;;;;4995111;28;20029;-68
2023/10/25 00:15:56;;;;;;;9.98;3.78;;;14.30;99.90;;;;;;4995004;28;20121;-68
2023/10/25 00:18:21;;;;;;;6.97;2.97;;;14.30;99.90;;;;;;4995080;28;20431;-68
2023/10/25 00:20:47;;;;;;;7.75;2.60;;;14.30;99.90;;;;;;4994701;28;20034;-67
2023/10/25 00:23:12;;;;;;;6.45;2.70;;;14.30;99.90;;;;;;4994871;28;20468;-69
2023/10/25 00:25:38;;;;;;;8.90;2.30;;;14.20;99.90;;;;;;4994458;28;20054;-68
2023/10/25 00:28:03;;;;;;;6.65;2.22;;;14.30;99.90;;;;;;4994821;28;20093;-69
2023/10/25 00:30:29;;;;;;;6.68;2.20;;;14.30;99.90;;;;;;4994241;28;20054;-69
2023/10/25 00:32:55;;;;;;;6.85;2.38;;;14.30;99.90;;;;;;4994418;28;20057;-68
2023/10/25 00:35:20;;;;;;;6.72;2.42;;;14.30;99.90;;;;;;4994465;28;20034;-68
2023/10/25 00:37:46;;;;;;;10.50;2.28;;;14.30;99.90;;;;;;4994658;28;20053;-68
2023/10/25 00:40:11;;;;;;;8.00;2.70;;;14.30;99.90;;;;;;4994262;28;20018;-70
2023/10/25 00:42:37;;;;;;;8.02;2.67;;;14.30;99.90;;;;;;4994222;28;20045;-67
2023/10/25 00:45:03;;;;;;;8.75;2.90;;;14.30;99.90;;;;;;4994627;28;20033;-69
2023/10/25 00:47:28;;;;;;;6.70;2.72;;;14.20;99.90;;;;;;4992939;28;20033;-68
2023/10/25 00:49:54;;;;;;;7.18;2.78;;;14.30;99.90;;;;;;4993371;28;20370;-68
2023/10/25 00:52:20;;;;;;;9.02;3.10;;;14.30;99.90;;;;;;4994029;28;20026;-68
2023/10/25 00:54:46;;;;;;;5.75;2.53;;;14.30;99.90;;;;;;4993984;28;20022;-68
2023/10/25 00:57:13;;;;;;;10.05;2.47;;;14.20;99.90;;;;;;4993003;28;20034;-68
2023/10/25 00:59:40;;;;;;;8.25;2.42;;;14.30;99.90;;;;;;4994248;28;20030;-68
2023/10/25 01:02:07;;;;;;;6.28;2.10;;;14.30;99.90;;;;;;4993947;28;20026;-68
2023/10/25 01:04:33;;;;;;;5.55;2.67;;;14.30;99.90;;;;;;4993868;28;20026;-68
2023/10/25 01:06:59;;;;;;;8.25;3.30;;;14.30;99.90;;;;;;4994027;28;20038;-67
2023/10/25 01:09:25;;;;;;;6.80;2.40;;;14.20;99.90;;;;;;4993973;28;20141;-69
2023/10/25 01:11:51;;;;;;;8.02;2.45;;;14.20;99.90;;;;;;4993747;28;20038;-69
2023/10/25 01:14:16;;;;;;;6.18;2.10;;;14.20;99.90;;;;;;4994043;28;20030;-67
2023/10/25 01:16:42;;;;;;;5.35;2.05;;;14.20;99.90;;;;;;4993900;28;20112;-67
2023/10/25 01:19:08;;;;;;;7.68;2.15;;;14.20;99.90;;;;;;4994302;28;20489;-67
2023/10/25 01:21:34;;;;;;;8.25;2.50;;;14.20;99.90;;;;;;4992927;28;20046;-67
2023/10/25 01:23:59;;;;;;;8.10;2.58;;;14.20;99.90;;;;;;4993381;28;20475;-66
2023/10/25 01:26:25;;;;;;;7.57;2.25;;;14.20;99.90;;;;;;4992485;28;20026;-68
2023/10/25 01:28:51;;;;;;;6.78;2.40;;;14.20;99.90;;;;;;4993993;28;20081;-68
2023/10/25 01:31:16;;;;;;;6.85;2.10;;;14.20;99.90;;;;;;4992340;28;20084;-68
2023/10/25 01:33:43;;;;;;;5.22;2.35;;;14.20;99.90;;;;;;4993434;28;20026;-68
2023/10/25 01:36:08;;;;;;;6.95;2.20;;;14.20;99.90;;;;;;4993715;28;20081;-68
2023/10/25 01:38:34;;;;;;;5.47;2.25;;;14.20;99.90;;;;;;4993304;28;20054;-67
2023/10/25 01:40:59;;;;;;;6.93;2.38;;;14.20;99.90;;;;;;4993609;28;20061;-67
2023/10/25 01:43:25;;;;;;;4.00;2.08;;;14.20;99.90;;;;;;4993345;28;20080;-68
2023/10/25 01:45:51;;;;;;;7.82;2.20;;;14.20;99.90;;;;;;4993742;28;20383;-68
2023/10/25 01:48:16;;;;;;;7.13;2.28;;;14.20;99.90;;;;;;4993572;28;20049;-68
2023/10/25 01:50:42;;;;;;;9.63;1.98;;;14.20;99.90;;;;;;4993831;28;20022;-68
2023/10/25 01:53:07;;;;;;;5.85;2.10;;;14.20;99.90;;;;;;5008001;28;20038;-68
2023/10/25 01:55:33;;;;;;;6.13;1.90;;;14.20;99.90;;;;;;4993658;28;20029;-68
2023/10/25 01:57:58;;;;;;;5.07;1.73;;;14.20;99.90;;;;;;4993527;28;20027;-68
2023/10/25 02:00:24;;;;;;;6.63;1.85;;;14.20;99.90;;;;;;4993385;28;20031;-68
2023/10/25 02:02:50;;;;;;;10.88;1.92;;;14.20;99.90;;;;;;4993388;28;20380;-68
2023/10/25 02:05:15;;;;;;;6.50;2.17;;;14.20;99.90;;;;;;4993758;28;20037;-68
2023/10/25 02:07:41;;;;;;;7.53;2.20;;;14.20;99.90;;;;;;4992930;28;20110;-68
2023/10/25 02:10:07;;;;;;;8.35;2.33;;;14.20;99.90;;;;;;4993175;28;20031;-68
2023/10/25 02:12:32;;;;;;;10.85;2.22;;;14.20;99.90;;;;;;4993369;28;20478;-68
2023/10/25 02:14:58;;;;;;;3.60;1.75;;;14.20;99.90;;;;;;4993640;28;20080;-67
2023/10/25 02:17:23;;;;;;;6.45;1.80;;;14.20;99.90;;;;;;4993331;28;20439;-67
2023/10/25 02:19:49;;;;;;;6.68;1.88;;;14.20;99.90;;;;;;4993140;28;20069;-67
2023/10/25 02:22:15;;;;;;;6.30;1.90;;;14.20;99.90;;;;;;4993007;28;20053;-68
2023/10/25 02:24:40;;;;;;;5.55;1.70;;;14.20;99.90;;;;;;4993391;28;20033;-67
2023/10/25 02:27:06;;;;;;;11.90;2.20;;;14.20;99.90;;;;;;4993722;28;20030;-67
2023/10/25 02:29:31;;;;;;;5.30;1.80;;;14.20;99.90;;;;;;4992947;28;20542;-67
2023/10/25 02:31:57;;;;;;;4.38;1.95;;;14.20;99.90;;;;;;4994450;28;20357;-68
2023/10/25 02:34:23;;;;;;;7.90;1.70;;;14.20;99.90;;;;;;4996752;28;20068;-68
2023/10/25 02:36:48;;;;;;;6.50;2.00;;;14.20;99.90;;;;;;4996587;28;20038;-68
2023/10/25 02:39:14;;;;;;;8.82;1.67;;;14.20;99.90;;;;;;4996556;28;20476;-69
2023/10/25 02:41:40;;;;;;;4.60;1.92;;;14.20;99.90;;;;;;4996895;28;20026;-68
2023/10/25 02:44:05;;;;;;;5.50;1.77;;;14.20;99.90;;;;;;4996788;28;20517;-68
2023/10/25 02:46:31;;;;;;;10.63;1.55;;;14.20;99.90;;;;;;4996773;28;20038;-68
2023/10/25 02:48:56;;;;;;;6.30;1.95;;;14.20;99.90;;;;;;4996413;28;20019;-68
2023/10/25 02:51:22;;;;;;;7.88;1.90;;;14.20;99.90;;;;;;4996519;28;20057;-67
2023/10/25 02:53:47;;;;;;;5.97;1.52;;;14.20;99.90;;;;;;4996003;28;20498;-68
2023/10/25 02:56:13;;;;;;;4.25;1.23;;;14.20;99.90;;;;;;4996486;28;20062;-68
2023/10/25 02:58:39;;;;;;;6.88;1.58;;;14.20;99.90;;;;;;4996551;28;20476;-67
2023/10/25 03:01:05;;;;;;;4.57;1.63;;;14.20;99.90;;;;;;4996215;28;20093;-67
2023/10/25 03:03:32;;;;;;;3.85;1.45;;;14.20;99.90;;;;;;4996415;28;20026;-67
2023/10/25 03:05:58;;;;;;;5.60;1.77;;;14.20;99.90;;;;;;4995959;28;20030;-67
2023/10/25 03:08:27;;;;;;;4.22;1.70;;;14.20;99.90;;;;;;4996171;28;20026;-69
2023/10/25 03:10:53;;;;;;;6.80;1.92;;;14.20;99.90;;;;;;4994532;28;20037;-67
2023/10/25 03:13:19;;;;;;;6.97;1.80;;;14.10;99.90;;;;;;4996128;28;20053;-67
2023/10/25 03:15:44;;;;;;;5.00;1.85;;;14.20;99.90;;;;;;4996111;28;20065;-67
2023/10/25 03:18:10;;;;;;;5.78;2.30;;;14.20;99.90;;;;;;4996322;28;20026;-67
2023/10/25 03:20:36;;;;;;;5.53;1.77;;;14.20;99.90;;;;;;4994252;28;20066;-67
2023/10/25 03:23:02;;;;;;;7.40;2.00;;;14.10;99.90;;;;;;4995954;28;20534;-67
2023/10/25 03:25:27;;;;;;;5.13;1.80;;;14.20;99.90;;;;;;4994599;28;20076;-67
2023/10/25 03:27:53;;;;;;;6.53;2.05;;;14.20;99.90;;;;;;4996054;28;20046;-67
2023/10/25 03:30:19;;;;;;;8.32;2.00;;;14.10;99.90;;;;;;4995590;28;20096;-67
2023/10/25 03:32:44;;;;;;;9.10;2.10;;;14.10;99.90;;;;;;4995885;28;20468;-67
2023/10/25 03:35:11;;;;;;;3.20;1.80;;;14.20;99.90;;;;;;4995642;28;20110;-67
2023/10/25 03:37:39;;;;;;;7.63;2.08;;;14.10;99.90;;;;;;4995982;28;20030;-68
2023/10/25 03:40:14;;;;;;;8.38;1.90;;;14.10;99.90;;;;;;4995415;28;20141;-69
2023/10/25 03:42:40;;;;;;;6.60;1.83;;;14.10;99.90;;;;;;4995774;28;20053;-67
2023/10/25 03:45:06;;;;;;;6.30;2.03;;;14.10;99.90;;;;;;4993571;28;20117;-67
2023/10/25 03:47:34;;;;;;;3.90;1.88;;;14.10;99.90;;;;;;4995453;28;20032;-67
2023/10/25 03:50:01;;;;;;;9.18;2.28;;;14.10;99.90;;;;;;4995196;28;20011;-67
2023/10/25 03:52:28;;;;;;;4.53;1.40;;;14.10;99.90;;;;;;4995665;28;20490;-67
2023/10/25 03:54:53;;;;;;;4.00;1.90;;;14.10;99.90;;;;;;4995221;28;20022;-67
2023/10/25 03:57:19;;;;;;;5.32;1.88;;;14.10;99.90;;;;;;4995420;28;20475;-67
2023/10/25 03:59:44;;;;;;;9.25;1.83;;;14.10;99.90;;;;;;4995277;28;20365;-67
2023/10/25 04:02:10;;;;;;;6.22;2.35;;;14.10;99.90;;;;;;4995369;28;20137;-66
2023/10/25 04:04:35;;;;;;;5.05;2.08;;;14.10;99.90;;;;;;4994744;28;20022;-66
2023/10/25 04:07:01;;;;;;;7.88;2.50;;;14.10;99.90;;;;;;4994952;28;20105;-70
2023/10/25 04:09:27;;;;;;;3.60;1.73;;;14.10;99.90;;;;;;4994930;28;20085;-68
2023/10/25 04:11:52;;;;;;;6.85;2.10;;;14.10;99.90;;;;;;4995316;28;20531;-67
2023/10/25 04:14:18;;;;;;;5.72;2.00;;;14.10;99.90;;;;;;4993130;28;20030;-66
2023/10/25 04:16:43;;;;;;;15.05;2.10;;;14.10;99.90;;;;;;4994016;28;20042;-67
2023/10/25 04:19:09;;;;;;;3.95;1.70;;;14.10;99.90;;;;;;4994779;28;20468;-67
2023/10/25 04:21:34;;;;;;;8.18;2.47;;;14.10;99.90;;;;;;4992328;28;20112;-67
2023/10/25 04:24:01;;;;;;;6.72;2.13;;;14.10;99.90;;;;;;4993625;28;20113;-67
2023/10/25 04:26:28;;;;;;;5.88;1.73;;;14.10;99.90;;;;;;4993029;28;20045;-66
2023/10/25 04:28:54;;;;;;;4.30;1.63;;;14.10;99.90;;;;;;5006082;28;20106;-66
2023/10/25 04:31:20;;;;;;;4.75;1.88;;;14.10;99.90;;;;;;4991405;28;20101;-67
2023/10/25 04:33:47;;;;;;;3.95;1.90;;;14.10;99.90;;;;;;4992150;28;20019;-67
2023/10/25 04:36:13;;;;;;;4.82;1.95;;;14.10;99.90;;;;;;4991360;28;20526;-67
2023/10/25 04:38:39;;;;;;;7.88;1.90;;;14.00;99.90;;;;;;4993378;28;20058;-68
2023/10/25 04:41:04;;;;;;;5.78;1.48;;;14.00;99.90;;;;;;4991691;28;20049;-67
2023/10/25 04:43:30;;;;;;;6.38;1.67;;;14.00;99.90;;;;;;4994216;28;20534;-67
2023/10/25 04:45:56;;;;;;;10.00;1.63;;;14.00;99.90;;;;;;4994037;28;20065;-67
2023/10/25 04:48:22;;;;;;;4.32;1.80;;;14.00;99.90;;;;;;4994053;28;20041;-70
2023/10/25 04:50:47;;;;;;;4.85;1.30;;;14.00;99.90;;;;;;4994257;28;20018;-67
2023/10/25 04:53:13;;;;;;;6.60;1.70;;;14.00;99.90;;;;;;4993102;28;20054;-68
2023/10/25 04:55:44;;;;;;;4.38;1.42;;;14.00;99.90;;;;;;4994167;28;20459;-67
2023/10/25 04:58:10;;;;;;;6.15;1.73;;;14.00;99.90;;;;;;4993914;28;20034;-67
2023/10/25 05:00:36;;;;;;;5.72;1.60;;;14.00;99.90;;;;;;4993734;28;20034;-67
2023/10/25 05:03:04;;;;;;;6.22;1.55;;;14.00;99.90;;;;;;4992401;28;20030;-67
2023/10/25 05:05:30;;;;;;;3.67;1.30;;;14.00;99.90;;;;;;4993372;28;20454;-67
2023/10/25 05:07:56;;;;;;;5.95;1.58;;;14.10;99.90;;;;;;4993616;28;20034;-69
2023/10/25 05:10:22;;;;;;;2.22;1.20;;;14.30;99.90;;;;;;4994046;28;20092;-67
2023/10/25 05:12:48;;;;;;;3.50;1.40;;;14.30;99.90;;;;;;4992748;28;20018;-68
2023/10/25 05:15:16;;;;;;;2.40;1.20;;;14.30;99.90;;;;;;4993703;28;20022;-67
2023/10/25 05:17:44;;;;;;;2.78;1.05;;;14.40;99.90;;;;;;4997328;28;20483;-67
2023/10/25 05:20:11;;;;;;;5.20;1.20;;;14.40;99.90;;;;;;5000776;28;20029;-74
2023/10/25 05:22:39;;;;;;;4.43;1.25;;;14.40;99.90;;;;;;4989013;28;20038;-72
2023/10/25 05:25:07;;;;;;;5.13;1.20;;;14.50;99.90;;;;;;4992742;28;20150;-71
2023/10/25 05:27:34;;;;;;;4.28;1.00;;;14.50;99.90;;;;;;4989190;28;20026;-72
2023/10/25 05:30:03;;;;;;;5.45;1.60;;;14.50;99.90;;;;;;4991643;28;20050;-67
2023/10/25 05:32:33;;;;;;;5.28;1.48;;;14.50;99.90;;;;;;4993017;28;20018;-68
2023/10/25 05:35:00;;;;;;;2.28;1.10;;;14.60;99.90;;;;;;4992677;28;20026;-73
2023/10/25 05:37:27;;;;;;;4.65;1.02;;;14.50;99.90;;;;;;4990666;28;20042;-67
2023/10/25 05:39:53;;;;;;;5.40;1.27;;;14.50;99.90;;;;;;4988630;28;20026;-67
2023/10/25 05:42:20;;;;;;;7.72;1.60;;;14.50;99.90;;;;;;4992146;28;20027;-67
2023/10/25 05:44:54;;;;;;;3.75;1.38;;;14.60;99.90;;;;;;4992007;28;20029;-72
2023/10/25 05:47:25;;;;;;;2.30;1.20;;;14.60;99.90;;;;;;4991194;28;20018;-66
2023/10/25 05:49:51;;;;;;;4.60;1.48;;;14.50;99.90;;;;;;4991902;28;20030;-66
2023/10/25 05:52:17;;;;;;;5.68;1.23;;;14.60;99.90;;;;;;4993599;28;20085;-66
2023/10/25 05:54:43;;;;;;;4.80;1.67;;;14.50;99.90;;;;;;4992992;28;20030;-69
2023/10/25 05:57:09;;;;;;;5.05;1.77;;;14.60;99.90;;;;;;4993259;28;20507;-67
2023/10/25 05:59:35;;;;;;;3.03;1.20;;;14.50;99.90;;;;;;4990915;28;20034;-67
2023/10/25 06:02:11;;;;;;;3.97;1.05;;;14.60;99.90;;;;;;4988042;28;20031;-67
2023/10/25 06:04:39;;;;;;;3.75;1.30;;;14.60;99.90;;;;;;4986603;28;20023;-68
2023/10/25 06:07:06;;;;;;;4.45;1.27;;;14.60;99.90;;;;;;4992605;28;20404;-74
2023/10/25 06:09:32;;;;;;;6.32;1.95;;;14.60;99.90;;;;;;5010834;28;20431;-67
2023/10/25 06:11:58;;;;;;;4.68;1.67;;;14.60;99.90;;;;;;4994778;28;20026;-67
2023/10/25 06:14:24;;;;;;;7.88;1.35;;;14.50;99.90;;;;;;4995026;28;20049;-67
2023/10/25 06:16:50;;;;;;;6.25;1.38;;;14.50;99.90;;;;;;4991442;28;20061;-67
2023/10/25 06:19:15;;;;;;;7.28;1.50;;;14.40;99.90;;;;;;4993119;28;20387;-67
2023/10/25 06:21:41;;;;;;;4.75;1.25;;;14.40;99.90;;;;;;4993171;28;20117;-69
2023/10/25 06:24:07;;;;;;;4.13;1.40;;;14.40;99.90;;;;;;4996251;28;20018;-67
2023/10/25 06:26:33;;;;;;;6.18;1.95;;;14.40;99.90;;;;;;4997367;28;20030;-67
2023/10/25 06:28:59;;;;;;;3.22;1.33;;;14.40;99.90;;;;;;4996895;28;20049;-67
2023/10/25 06:31:24;;;;;;;7.10;1.67;;;14.30;99.90;;;;;;4995733;28;20419;-67
2023/10/25 06:33:50;;;;;;;5.13;1.15;;;14.30;99.90;;;;;;4996814;28;20109;-67
2023/10/25 06:36:16;;;;;;;3.47;1.55;;;14.30;99.90;;;;;;4996839;28;20133;-67
2023/10/25 06:38:42;;;;;;;4.57;1.50;;;14.30;99.90;;;;;;4996769;28;20037;-67
2023/10/25 06:41:19;;;;;;;5.15;1.42;;;14.40;99.90;;;;;;4997113;28;20026;-67
2023/10/25 06:43:45;;;;;;;3.17;1.27;;;14.30;99.90;;;;;;4995227;28;20503;-67
2023/10/25 06:46:11;;;;;;;4.35;1.30;;;14.20;99.90;;;;;;4996948;28;20042;-67
2023/10/25 06:48:37;;;;;;;4.53;1.33;;;14.30;99.90;;;;;;4996455;28;20034;-67
2023/10/25 06:51:09;;;;;;;3.92;1.25;;;14.20;99.90;;;;;;4996883;28;20019;-67
2023/10/25 06:53:38;;;;;;;7.00;1.40;;;14.20;99.90;;;;;;4995449;28;20030;-67
2023/10/25 06:56:05;;;;;;;4.47;1.23;;;14.20;99.90;;;;;;4996908;28;20031;-67
2023/10/25 06:58:31;;;;;;;6.78;1.50;;;14.20;99.90;;;;;;4996130;28;20387;-67
2023/10/25 07:00:57;;;;;;;5.20;1.33;;;14.10;99.90;;;;;;4996539;28;20084;-67
2023/10/25 07:03:36;;;;;;;3.28;1.13;;;14.10;99.90;;;;;;4996451;28;20027;-67
2023/10/25 07:06:04;;;;;;;5.85;1.50;;;14.10;99.90;;;;;;4996634;28;20022;-67
2023/10/25 07:08:31;;;;;;;4.10;1.73;;;14.10;99.90;;;;;;4996475;28;20026;-67
2023/10/25 07:10:56;;;;;;;5.63;1.88;;;14.10;99.90;;;;;;4996416;28;20026;-67
2023/10/25 07:13:24;;;;;;;6.53;1.77;;;14.10;99.90;;;;;;4996017;28;20413;-67
2023/10/25 07:15:50;;;;;;;6.47;1.65;;;14.10;99.90;;;;;;4996200;28;20076;-67
2023/10/25 07:18:16;;;;;;;4.18;1.23;;;14.10;99.90;;;;;;4995074;28;20172;-66
2023/10/25 07:20:41;;;;;;;7.28;1.40;;;14.10;99.90;;;;;;4996202;28;20519;-67
2023/10/25 07:23:08;;;;;;;3.38;1.35;;;14.10;99.90;;;;;;4996041;28;20061;-67
2023/10/25 07:25:34;;;;;;;7.38;1.70;;;14.10;99.90;;;;;;4995973;28;20109;-67
2023/10/25 07:27:59;;;;;;;2.85;1.40;;;14.10;99.90;;;;;;4995884;28;20150;-67
2023/10/25 07:30:25;;;;;;;3.75;1.65;;;14.10;99.90;;;;;;4995997;28;20105;-67
2023/10/25 07:32:51;;;;;;;4.25;2.08;;;14.10;99.90;;;;;;4995860;28;20019;-67
2023/10/25 07:35:16;;;;;;;6.47;2.38;;;14.10;99.90;;;;;;4995842;28;20083;-68
2023/10/25 07:37:42;;;;;;;5.35;2.10;;;14.10;99.90;;;;;;4995730;28;20061;-67
2023/10/25 07:40:08;;;;;;;4.30;1.40;;;14.10;99.90;;;;;;4995700;28;20096;-68
2023/10/25 07:42:34;;;;;;;5.05;1.65;;;14.10;99.90;;;;;;4995500;28;20062;-67
2023/10/25 07:44:59;;;;;;;4.95;1.85;;;14.10;99.90;;;;;;4995667;28;20571;-67
2023/10/25 07:47:25;;;;;;;3.85;2.10;;;14.10;99.90;;;;;;4995521;28;20033;-67
2023/10/25 07:49:50;;;;;;;6.18;2.00;;;14.00;99.90;;;;;;4995647;28;20023;-67
2023/10/25 07:52:18;;;;;;;4.93;1.77;;;14.10;99.90;;;;;;4995566;28;20475;-68
2023/10/25 07:54:44;;;;;;;5.03;1.73;;;14.00;99.90;;;;;;4995569;28;20062;-67
2023/10/25 07:57:09;;;;;;;7.57;2.20;;;14.00;99.90;;;;;;4995219;28;20071;-69
2023/10/25 07:59:36;;;;;;;3.72;1.98;;;14.00;99.90;;;;;;4994083;28;20472;-69
2023/10/25 08:02:02;;;;;;;3.13;2.00;;;14.00;99.90;;;;;;4995295;28;20113;-67
2023/10/25 08:04:28;;;;;;;4.28;2.47;;;14.00;99.90;;;;;;4995446;28;20044;-67
2023/10/25 08:06:53;;;;;;;7.53;2.72;;;14.00;99.90;;;;;;4995250;28;20496;-68
2023/10/25 08:09:19;;;;;;;5.70;2.53;;;14.00;99.90;;;;;;4995267;28;20053;-67
2023/10/25 08:11:45;;;;;;;4.95;2.60;;;14.00;99.90;;;;;;4994879;28;20502;-67
2023/10/25 08:14:11;;;;;;;7.28;3.20;;;14.10;99.90;;;;;;4994688;28;20023;-68
2023/10/25 08:16:39;;;;;;;6.60;3.70;;;14.00;99.90;;;;;;4994349;28;20108;-67
2023/10/25 08:19:08;;;;;;;6.03;3.80;;;14.00;99.90;;;;;;4995005;28;20073;-67
2023/10/25 08:21:35;;;;;;;5.88;3.10;;;14.10;99.90;;;;;;4994840;28;20060;-68
2023/10/25 08:24:02;;;;;;;6.47;2.85;;;14.10;99.90;;;;;;4994927;28;20030;-67
2023/10/25 08:26:28;;;;;;;6.93;2.75;;;14.00;99.90;;;;;;4994518;28;20154;-67
2023/10/25 08:28:54;;;;;;;6.07;2.67;;;14.00;99.90;;;;;;4996428;28;20057;-68
2023/10/25 08:31:19;;;;;;;6.25;3.20;;;14.00;99.90;;;;;;5002647;28;20100;-67
2023/10/25 08:33:45;;;;;;;5.03;2.53;;;14.00;99.90;;;;;;5000198;28;20029;-67
2023/10/25 08:36:11;;;;;;;6.60;2.45;;;14.10;99.90;;;;;;5007876;28;20042;-67
2023/10/25 08:38:37;;;;;;;6.97;3.03;;;14.00;99.90;;;;;;5014025;28;20375;-67
2023/10/25 08:41:07;;;;;;;6.05;2.20;;;14.00;99.90;;;;;;5005880;28;20025;-67
2023/10/25 08:43:34;;;;;;;6.07;2.17;;;13.90;99.90;;;;;;4992991;28;20030;-69
2023/10/25 08:46:03;;;;;;;5.20;2.30;;;14.00;99.90;;;;;;4994011;28;20023;-66
2023/10/25 08:48:29;;;;;;;3.88;1.70;;;14.00;99.90;;;;;;4994380;28;20026;-67
2023/10/25 08:50:55;;;;;;;5.00;2.30;;;14.00;99.90;;;;;;4993461;28;20371;-66
2023/10/25 08:53:25;;;;;;;4.45;2.28;;;14.00;99.90;;;;;;4993790;28;20490;-66
2023/10/25 08:55:56;;;;;;;3.42;2.40;;;13.90;99.90;;;;;;4994141;28;20105;-67
2023/10/25 08:58:26;;;;;;;3.47;2.17;;;14.00;99.90;;;;;;4986150;28;20034;-66
2023/10/25 09:00:53;;;;;;;5.22;2.50;;;13.90;99.90;;;;;;4990529;28;20034;-66
2023/10/25 09:03:33;;;;;;;4.10;2.03;;;13.90;99.90;;;;;;4992418;28;20032;-67
2023/10/25 09:06:01;;;;;;;3.75;1.75;;;13.90;99.90;;;;;;4993372;28;20105;-69
2023/10/25 09:08:27;;;;;;;2.53;1.70;;;14.00;99.90;;;;;;4993432;28;20085;-68
2023/10/25 09:10:55;;;;;;;6.43;1.98;;;13.90;99.90;;;;;;4992853;28;20030;-66
2023/10/25 09:13:21;;;;;;;3.42;1.88;;;14.00;99.90;;;;;;4994065;28;20444;-66
2023/10/25 09:15:47;;;;;;;4.93;1.70;;;14.00;99.90;;;;;;4992515;28;20511;-68
2023/10/25 09:18:12;;;;;;;3.25;1.60;;;13.90;99.90;;;;;;4993925;28;20030;-68
2023/10/25 09:20:38;;;;;;;5.40;1.65;;;13.90;99.90;;;;;;4993245;28;20109;-67
2023/10/25 09:23:11;;;;;;;4.30;1.60;;;14.00;99.90;;;;;;4993252;28;20030;-76
2023/10/25 09:25:37;;;;;;;5.05;1.90;;;13.90;99.90;;;;;;4983976;28;20082;-72
2023/10/25 09:28:04;;;;;;;4.38;1.55;;;13.90;99.90;;;;;;5002176;28;20026;-70
2023/10/25 09:30:30;;;;;;;4.05;1.98;;;13.90;99.90;;;;;;5007338;28;20023;-71
2023/10/25 09:32:59;;;;;;;3.65;2.10;;;13.80;99.90;;;;;;4993398;28;20038;-70
2023/10/25 09:35:24;;;;;;;3.30;1.77;;;13.90;99.90;;;;;;4992891;28;20468;-71
2023/10/25 09:37:50;;;;;;;3.13;1.83;;;13.90;99.90;;;;;;4992849;28;20049;-70
2023/10/25 09:40:16;;;;;;;2.83;1.88;;;13.90;99.90;;;;;;4993459;28;20029;-70
2023/10/25 09:42:49;;;;;;;21.75;19.52;;;13.90;99.90;;;;;;4992879;28;20057;-71
2023/10/25 09:45:20;;;;;;;3.92;3.08;;;13.90;99.90;;;;;;4993656;28;20027;-73
2023/10/25 09:47:48;;;;;;;7.73;5.47;;;13.90;99.90;;;;;;4993460;28;20022;-71
2023/10/25 09:50:25;;;;;;;5.18;2.30;;;13.90;99.90;;;;;;4993694;28;20126;-71
2023/10/25 09:52:55;;;;;;;4.07;2.45;;;14.00;99.90;;;;;;4993239;28;20026;-70
2023/10/25 09:55:24;;;;;;;3.88;2.47;;;13.90;99.90;;;;;;4993751;28;20018;-71
2023/10/25 09:57:53;;;;;;;4.90;2.67;;;13.90;99.90;;;;;;4993363;28;20394;-71
2023/10/25 10:00:20;;;;;;;3.85;2.65;;;13.90;99.90;;;;;;4993190;28;20372;-71
2023/10/25 10:03:01;;;;;;;3.67;2.38;;;13.90;99.90;;;;;;4993234;28;20027;-71
2023/10/25 10:06:12;;;;;;;3.95;2.63;;;13.90;99.90;;;;;;4993699;28;20057;-71
2023/10/25 10:09:09;;;;;;;4.05;3.05;;;13.90;99.90;;;;;;4993270;28;20066;-71
2023/10/25 10:11:45;;;;;;;3.42;2.83;;;14.00;99.90;;;;;;4990815;28;20120;-72
2023/10/25 10:14:31;;;;;;;4.63;2.92;;;13.90;99.90;;;;;;4992910;28;20023;-71
2023/10/25 10:16:58;;;;;;;4.72;2.63;;;13.90;99.90;;;;;;4992670;28;20044;-72
2023/10/25 10:19:24;;;;;;;6.07;2.95;;;13.90;99.90;;;;;;4983016;28;20078;-71
2023/10/25 10:22:07;;;;;;;3.97;2.65;;;13.90;99.90;;;;;;4988189;28;20039;-71
2023/10/25 10:24:44;;;;;;;4.88;2.83;;;14.00;99.90;;;;;;4990196;28;20026;-70
2023/10/25 10:27:12;;;;;;;2.97;2.60;;;13.90;99.90;;;;;;4979577;28;20027;-71
2023/10/25 10:29:39;;;;;;;3.10;2.25;;;14.00;99.90;;;;;;4986248;28;20035;-69
2023/10/25 10:32:06;;;;;;;3.42;3.08;;;14.00;99.90;;;;;;4989709;28;20030;-72
2023/10/25 10:34:47;;;;;;;4.43;3.35;;;14.00;99.90;;;;;;4990572;28;20023;-72
2023/10/25 10:37:20;;;;;;;6.43;3.83;;;14.00;99.90;;;;;;4992489;28;20046;-73
2023/10/25 10:39:58;;;;;;;4.63;3.80;;;14.00;99.90;;;;;;4990825;28;20026;-71
2023/10/25 10:42:33;;;;;;;4.55;4.15;;;14.00;99.90;;;;;;4992218;28;20132;-71
2023/10/25 10:45:01;;;;;;;5.65;4.00;;;14.00;99.90;;;;;;4981624;28;20033;-71
2023/10/25 10:47:47;;;;;;;3.92;3.60;;;14.00;99.90;;;;;;5006787;28;20027;-71
2023/10/25 10:50:15;;;;;;;5.97;4.05;;;14.00;99.90;;;;;;4991279;28;20494;-71
2023/10/25 10:52:43;;;;;;;4.38;4.03;;;14.00;99.90;;;;;;4987261;28;20117;-70
2023/10/25 10:55:15;;;;;;;5.60;4.22;;;14.00;99.90;;;;;;4992849;28;20022;-70
2023/10/25 10:57:40;;;;;;;6.30;4.32;;;14.00;99.90;;;;;;5010890;28;20042;-70
2023/10/25 11:00:08;;;;;;;4.60;4.20;;;14.10;99.90;;;;;;4994227;28;20023;-70
2023/10/25 11:02:37;;;;;;;5.82;4.80;;;14.10;99.90;;;;;;4992592;28;20078;-70
2023/10/25 11:05:07;;;;;;;4.72;4.30;;;14.10;99.90;;;;;;4990628;28;20562;-71
2023/10/25 11:07:33;;;;;;;5.80;4.18;;;14.10;99.90;;;;;;4990325;28;20034;-72
2023/10/25 11:09:59;;;;;;;4.07;3.63;;;14.20;99.90;;;;;;4994215;28;20431;-70
2023/10/25 11:12:26;;;;;;;4.97;3.92;;;14.20;99.90;;;;;;4983676;28;20033;-69
2023/10/25 11:14:52;;;;;;;6.90;4.40;;;14.10;99.90;;;;;;4989169;28;20031;-71
2023/10/25 11:17:18;;;;;;;5.55;3.72;;;14.20;99.90;;;;;;4990870;28;20065;-70
2023/10/25 11:19:45;;;;;;;4.50;4.10;;;14.20;99.90;;;;;;4989570;28;20026;-71
2023/10/25 11:22:11;;;;;;;6.95;4.68;;;14.20;99.90;;;;;;4993425;28;20089;-72
2023/10/25 11:24:37;;;;;;;3.95;3.60;;;14.20;99.90;;;;;;4988828;28;20553;-71
2023/10/25 11:27:04;;;;;;;5.35;4.85;;;14.30;99.90;;;;;;4991618;28;20038;-72
2023/10/25 11:29:33;;;;;;;4.88;4.38;;;14.30;99.90;;;;;;4992454;28;20101;-72
2023/10/25 11:34:33;;;;;;;6.45;3.97;;;14.30;99.90;;;;;;5008312;23;20551;-69
2023/10/25 11:37:02;;;;;;;4.57;4.07;;;14.30;99.90;;;;;;5029056;22;20046;-71
2023/10/25 11:39:32;;;;;;;6.13;3.90;;;14.30;99.90;;;;;;5018743;28;20037;-71
2023/10/25 11:42:00;;;;;;;4.57;3.90;;;14.40;99.90;;;;;;5029768;28;20223;-72
2023/10/25 11:44:30;;;;;;;4.18;3.65;;;14.40;99.90;;;;;;5014572;28;20468;-70
2023/10/25 11:46:56;;;;;;;4.03;3.47;;;14.40;99.90;;;;;;5017137;28;20022;-71
2023/10/25 11:49:21;;;;;;;3.45;2.83;;;14.40;99.90;;;;;;5024236;28;20037;-70
2023/10/25 11:51:47;;;;;;;6.15;2.90;;;14.40;99.90;;;;;;5026572;28;20029;-69
2023/10/25 11:54:13;;;;;;;3.63;3.00;;;14.40;99.90;;;;;;5033383;28;20025;-69
2023/10/25 11:56:39;;;;;;;2.55;2.20;;;14.50;99.90;;;;;;5021281;28;20030;-69
2023/10/25 11:59:05;;;;;;;2.80;2.50;;;14.50;99.90;;;;;;5021657;28;20032;-69
2023/10/25 12:01:31;;;;;;;2.53;2.33;;;14.40;99.90;;;;;;5025867;28;20034;-69
2023/10/25 12:03:57;;;;;;;3.38;2.60;;;14.50;99.90;;;;;;5017583;28;20159;-70
2023/10/25 12:06:24;;;;;;;3.30;3.00;;;14.50;99.90;;;;;;5015717;28;20041;-70
2023/10/25 12:08:50;;;;;;;5.57;2.97;;;14.50;99.90;;;;;;5021384;28;20072;-68
2023/10/25 12:11:15;;;;;;;2.78;2.10;;;14.50;99.90;;;;;;5027111;28;20049;-69
2023/10/25 12:13:42;;;;;;;4.32;2.13;;;14.50;99.90;;;;;;5024078;28;20030;-70
2023/10/25 12:16:08;;;;;;;2.42;1.90;;;14.50;99.90;;;;;;5025868;28;20779;-72
2023/10/25 12:18:37;;;;;;;4.20;2.83;;;14.50;99.90;;;;;;5018194;28;20084;-70
2023/10/25 12:21:04;;;;;;;5.93;2.15;;;14.50;99.90;;;;;;5016759;28;20014;-74
2023/10/25 12:23:31;;;;;;;2.20;1.98;;;14.50;99.90;;;;;;5026415;28;20025;-71
2023/10/25 12:25:57;;;;;;;2.85;1.75;;;14.60;99.90;;;;;;5023612;28;20105;-70
2023/10/25 12:28:23;;;;;;;2.95;2.15;;;14.60;99.90;;;;;;5021702;28;20100;-72
2023/10/25 12:30:49;;;;;;;4.47;2.53;;;14.60;99.90;;;;;;5027808;28;20029;-71
2023/10/25 12:33:15;;;;;;;2.30;2.10;;;14.60;99.90;;;;;;5019387;28;20034;-71
2023/10/25 12:35:42;;;;;;;3.08;2.50;;;14.60;99.90;;;;;;5018127;28;20037;-72
2023/10/25 12:38:08;;;;;;;3.28;2.97;;;14.60;99.90;;;;;;5037834;28;20072;-69
2023/10/25 12:40:33;;;;;;;2.53;1.95;;;14.60;99.90;;;;;;5029999;28;20029;-70
2023/10/25 12:42:59;;;;;;;3.88;3.40;;;14.60;99.90;;;;;;5020368;28;20481;-69
2023/10/25 12:45:25;;;;;;;4.35;1.90;;;14.70;99.90;;;;;;5017366;28;20463;-72
2023/10/25 12:47:51;;;;;;;3.35;1.83;;;14.70;99.90;;;;;;5029192;28;20115;-70